Time;durP1;ratioP1;P1;durP2;ratioP2;P2;SDS_P1;SDS_P2;PMS_P1;PMS_P2;Temp;Humidity;BMP_temperature;BMP_pressure;BME280_temperature;BME280_humidity;BME280_pressure;Samples;Min_cycle;Max_cycle;Signal;HPM_P1;HPM_P2
2022/01/08 00:01:35;;;;;;;11.47;5.97;;;4.10;99.90;;;;;;5073405;28;20280;-62
2022/01/08 00:04:01;;;;;;;10.10;5.70;;;4.20;99.90;;;;;;5072944;28;20242;-62
2022/01/08 00:06:28;;;;;;;11.17;5.57;;;4.10;99.90;;;;;;5057033;28;20279;-62
2022/01/08 00:08:53;;;;;;;7.27;5.37;;;4.00;99.90;;;;;;5056532;28;20259;-62
2022/01/08 00:11:21;;;;;;;8.17;6.03;;;3.90;99.90;;;;;;5057695;28;20204;-63
2022/01/08 00:13:47;;;;;;;9.73;5.27;;;3.90;99.90;;;;;;5062198;28;20226;-61
2022/01/08 00:16:13;;;;;;;9.57;5.17;;;3.90;99.90;;;;;;5073712;28;20212;-62
2022/01/08 00:18:39;;;;;;;6.10;4.70;;;4.00;99.90;;;;;;5040368;28;20216;-63
2022/01/08 00:21:05;;;;;;;8.53;5.20;;;4.00;99.90;;;;;;5074914;28;20201;-64
2022/01/08 00:23:31;;;;;;;9.07;4.43;;;3.90;99.90;;;;;;5075172;28;20197;-62
2022/01/08 00:25:58;;;;;;;7.60;4.07;;;3.90;99.90;;;;;;5071386;28;20546;-61
2022/01/08 00:28:25;;;;;;;8.57;3.90;;;4.00;99.90;;;;;;5074489;28;20658;-62
2022/01/08 00:30:51;;;;;;;9.90;3.50;;;3.90;99.90;;;;;;5068914;28;20192;-62
2022/01/08 00:33:16;;;;;;;7.43;3.90;;;4.00;99.90;;;;;;5066760;28;20239;-61
2022/01/08 00:35:42;;;;;;;8.30;3.37;;;3.90;99.90;;;;;;5054241;28;20186;-62
2022/01/08 00:38:08;;;;;;;7.93;3.13;;;3.80;99.90;;;;;;5073379;28;20276;-61
2022/01/08 00:40:34;;;;;;;5.10;4.20;;;3.70;99.90;;;;;;5090138;28;20224;-63
2022/01/08 00:42:59;;;;;;;10.10;3.53;;;3.70;99.90;;;;;;5083391;28;20227;-61
2022/01/08 00:45:25;;;;;;;4.90;2.63;;;3.70;99.90;;;;;;5082591;28;20197;-62
2022/01/08 00:47:51;;;;;;;7.37;3.10;;;3.60;99.90;;;;;;5095177;28;20189;-61
2022/01/08 00:50:17;;;;;;;4.43;2.60;;;3.70;99.90;;;;;;5070504;28;20185;-61
2022/01/08 00:52:43;;;;;;;2.90;2.57;;;3.80;99.90;;;;;;5077333;28;20177;-61
2022/01/08 00:55:10;;;;;;;7.27;2.50;;;3.70;99.90;;;;;;5080888;28;20272;-62
2022/01/08 00:57:36;;;;;;;3.23;2.93;;;3.80;99.90;;;;;;5067686;28;20220;-61
2022/01/08 01:00:05;;;;;;;2.83;2.60;;;3.80;99.90;;;;;;5077422;28;20240;-59
2022/01/08 01:02:31;;;;;;;4.27;2.60;;;3.90;99.90;;;;;;5071540;28;20273;-60
2022/01/08 01:04:57;;;;;;;3.00;2.80;;;3.70;99.90;;;;;;5064791;28;20630;-59
2022/01/08 01:07:23;;;;;;;4.87;2.53;;;3.70;99.90;;;;;;5090925;28;20604;-59
2022/01/08 01:09:51;;;;;;;2.97;2.30;;;3.60;99.90;;;;;;5084840;28;20196;-59
2022/01/08 01:12:17;;;;;;;2.97;2.77;;;3.60;99.90;;;;;;5077169;28;20667;-59
2022/01/08 01:14:43;;;;;;;3.20;2.90;;;3.60;99.90;;;;;;5095043;28;20318;-59
2022/01/08 01:17:08;;;;;;;6.27;2.80;;;3.60;99.90;;;;;;5073724;28;20212;-59
2022/01/08 01:19:35;;;;;;;8.60;2.83;;;3.60;99.90;;;;;;5059123;28;20209;-59
2022/01/08 01:22:02;;;;;;;5.00;2.77;;;3.60;99.90;;;;;;5074495;28;20188;-58
2022/01/08 01:24:29;;;;;;;3.40;2.57;;;3.70;99.90;;;;;;5068234;28;20185;-59
2022/01/08 01:27:11;;;;;;;5.83;3.33;;;3.70;99.90;;;;;;5073620;28;20196;-59
2022/01/08 01:48:21;;;;;;;4.23;3.33;;;3.70;99.90;;;;;;5093213;28;20275;-59
2022/01/08 01:50:47;;;;;;;8.13;5.37;;;3.60;99.90;;;;;;5076925;28;20651;-59
2022/01/08 01:53:14;;;;;;;9.27;4.40;;;3.70;99.90;;;;;;5076477;28;20181;-58
2022/01/08 01:55:41;;;;;;;5.80;4.77;;;3.70;99.90;;;;;;5095490;28;20183;-58
2022/01/08 01:58:07;;;;;;;6.77;4.83;;;3.60;99.90;;;;;;5066665;28;20268;-59
2022/01/08 02:00:33;;;;;;;14.17;5.73;;;3.50;99.90;;;;;;5075241;28;20240;-58
2022/01/08 02:02:59;;;;;;;8.50;5.37;;;3.60;99.90;;;;;;5081463;28;20195;-58
2022/01/08 02:05:26;;;;;;;16.30;6.03;;;3.50;99.90;;;;;;5094144;28;20196;-59
2022/01/08 02:07:55;;;;;;;9.33;5.53;;;3.50;99.90;;;;;;5071822;28;20189;-58
2022/01/08 02:10:21;;;;;;;9.60;4.77;;;3.50;99.90;;;;;;5072626;28;20250;-58
2022/01/08 02:12:47;;;;;;;11.07;6.20;;;3.60;99.90;;;;;;5075844;28;20184;-59
2022/01/08 02:15:12;;;;;;;9.20;6.63;;;3.60;99.90;;;;;;5093863;28;20196;-59
2022/01/08 02:17:38;;;;;;;11.27;5.70;;;3.60;99.90;;;;;;5072721;28;20193;-59
2022/01/08 02:20:05;;;;;;;14.43;7.83;;;3.50;99.90;;;;;;5061228;28;20219;-59
2022/01/08 02:22:31;;;;;;;13.53;6.53;;;3.50;99.90;;;;;;5092388;28;20672;-59
2022/01/08 02:24:56;;;;;;;14.23;6.83;;;3.60;99.90;;;;;;5093895;28;20181;-58
2022/01/08 02:27:22;;;;;;;17.33;8.00;;;3.70;99.90;;;;;;5063517;28;20215;-59
2022/01/08 02:29:51;;;;;;;12.53;7.37;;;3.60;99.90;;;;;;5056628;28;20668;-58
2022/01/08 02:32:20;;;;;;;9.87;6.67;;;3.70;99.90;;;;;;5088002;28;20231;-58
2022/01/08 02:34:48;;;;;;;9.83;6.50;;;3.70;99.90;;;;;;5092355;28;20180;-59
2022/01/08 02:37:15;;;;;;;17.73;8.13;;;3.70;99.90;;;;;;5082059;28;20672;-59
2022/01/08 02:39:43;;;;;;;9.33;6.20;;;3.70;99.90;;;;;;5074889;28;20209;-58
2022/01/08 02:42:13;;;;;;;12.00;6.63;;;3.60;99.90;;;;;;5088931;28;20190;-58
2022/01/08 02:44:41;;;;;;;11.07;6.40;;;3.50;99.90;;;;;;5056668;28;20189;-58
2022/01/08 02:47:07;;;;;;;12.43;7.20;;;3.60;99.90;;;;;;5073833;28;20305;-58
2022/01/08 02:49:34;;;;;;;9.80;6.03;;;3.50;99.90;;;;;;5080774;28;20189;-58
2022/01/08 02:52:01;;;;;;;16.23;6.93;;;3.50;99.90;;;;;;5085786;28;20188;-59
2022/01/08 02:54:26;;;;;;;15.63;7.37;;;3.40;99.90;;;;;;5082033;28;20193;-58
2022/01/08 02:56:52;;;;;;;15.37;7.40;;;3.40;99.90;;;;;;5056132;28;20292;-58
2022/01/08 02:59:18;;;;;;;10.10;7.10;;;3.40;99.90;;;;;;5073710;28;20227;-59
2022/01/08 03:01:45;;;;;;;14.30;7.80;;;3.30;99.90;;;;;;5069292;28;20184;-58
2022/01/08 03:04:11;;;;;;;14.40;7.43;;;3.40;99.90;;;;;;5076661;28;20181;-59
2022/01/08 03:06:37;;;;;;;13.20;6.90;;;3.50;99.90;;;;;;5090991;28;20184;-59
2022/01/08 03:09:04;;;;;;;10.50;7.40;;;3.50;99.90;;;;;;5058614;28;20560;-59
2022/01/08 03:11:29;;;;;;;15.93;6.30;;;3.50;99.90;;;;;;5057575;28;20200;-61
2022/01/08 03:13:56;;;;;;;14.70;6.50;;;3.50;99.90;;;;;;5075802;28;20691;-58
2022/01/08 03:16:21;;;;;;;10.00;6.40;;;3.40;99.90;;;;;;5084429;28;20189;-58
2022/01/08 03:18:48;;;;;;;9.43;5.93;;;3.40;99.90;;;;;;5072003;28;20681;-58
2022/01/08 03:21:17;;;;;;;9.93;6.47;;;3.50;99.90;;;;;;5080905;28;20209;-58
2022/01/08 03:23:51;;;;;;;10.67;5.83;;;3.50;99.90;;;;;;5084828;28;20200;-59
2022/01/08 03:26:19;;;;;;;11.23;7.20;;;3.40;99.90;;;;;;5075668;28;20650;-59
2022/01/08 03:28:46;;;;;;;11.83;6.67;;;3.40;99.90;;;;;;5085183;28;20181;-58
2022/01/08 03:31:13;;;;;;;13.77;6.77;;;3.50;99.90;;;;;;5056191;28;20189;-58
2022/01/08 03:33:39;;;;;;;17.73;7.47;;;3.50;99.90;;;;;;5073450;28;20288;-59
2022/01/08 03:36:05;;;;;;;10.37;6.97;;;3.40;99.90;;;;;;5092622;28;20307;-58
2022/01/08 03:38:32;;;;;;;11.47;6.73;;;3.30;99.90;;;;;;5092460;28;20197;-58
2022/01/08 03:40:58;;;;;;;10.97;6.93;;;3.30;99.90;;;;;;5092020;28;20242;-59
2022/01/08 03:43:24;;;;;;;13.67;6.60;;;3.30;99.90;;;;;;5091676;28;20641;-59
2022/01/08 03:45:49;;;;;;;7.60;6.70;;;3.40;99.90;;;;;;5092100;28;20642;-59
2022/01/08 03:50:44;;;;;;;10.10;7.27;;;3.30;99.90;;;;;;5091702;28;20575;-58
2022/01/08 03:53:10;;;;;;;17.53;7.73;;;3.30;99.90;;;;;;5055744;28;20189;-59
2022/01/08 03:55:38;;;;;;;15.20;6.70;;;3.40;99.90;;;;;;5082941;28;20609;-58
2022/01/08 03:58:04;;;;;;;13.23;7.77;;;3.20;99.90;;;;;;5081839;28;20640;-59
2022/01/08 04:00:31;;;;;;;21.03;8.20;;;3.20;99.90;;;;;;5092458;28;20222;-58
2022/01/08 04:02:57;;;;;;;13.80;7.93;;;3.20;99.90;;;;;;5070349;28;20262;-58
2022/01/08 04:05:22;;;;;;;15.07;8.03;;;3.20;99.90;;;;;;5073299;28;20221;-58
2022/01/08 04:07:48;;;;;;;18.03;8.00;;;3.30;99.90;;;;;;5082951;28;20556;-61
2022/01/08 04:10:14;;;;;;;15.47;8.43;;;3.30;99.90;;;;;;5040870;28;20204;-58
2022/01/08 04:12:44;;;;;;;11.17;7.97;;;3.30;99.90;;;;;;5074099;28;20634;-58
2022/01/08 04:15:45;;;;;;;13.80;7.37;;;3.30;99.90;;;;;;5080399;28;20177;-59
2022/01/08 04:18:01;;;;;;;12.60;7.07;;;3.30;99.90;;;;;;5086203;28;20647;-59
2022/01/08 04:20:27;;;;;;;16.43;8.13;;;3.30;99.90;;;;;;5082258;28;20211;-58
2022/01/08 04:22:53;;;;;;;17.33;9.13;;;3.20;99.90;;;;;;5042803;28;20193;-59
2022/01/08 04:25:22;;;;;;;16.30;8.00;;;3.30;99.90;;;;;;5096108;28;20177;-59
2022/01/08 04:27:48;;;;;;;18.30;8.07;;;3.20;99.90;;;;;;5095899;28;20622;-59
2022/01/08 04:30:14;;;;;;;16.50;9.13;;;3.20;99.90;;;;;;5086445;28;20185;-58
2022/01/08 04:32:43;;;;;;;17.10;8.37;;;3.20;99.90;;;;;;5095879;28;20187;-58
2022/01/08 04:35:09;;;;;;;14.37;8.27;;;3.20;99.90;;;;;;5095998;28;20185;-59
2022/01/08 04:37:35;;;;;;;16.07;8.17;;;3.10;99.90;;;;;;5095920;28;20317;-59
2022/01/08 04:40:00;;;;;;;13.17;8.50;;;3.20;99.90;;;;;;5067625;28;20213;-59
2022/01/08 04:42:26;;;;;;;15.60;7.67;;;3.30;99.90;;;;;;5088674;28;20203;-58
2022/01/08 04:44:55;;;;;;;18.97;8.23;;;3.20;99.90;;;;;;5095149;28;20192;-58
2022/01/08 04:47:21;;;;;;;15.57;9.13;;;3.40;99.90;;;;;;5095912;28;20185;-58
2022/01/08 04:49:46;;;;;;;20.70;9.67;;;3.40;99.90;;;;;;5095451;28;20200;-58
2022/01/08 04:52:12;;;;;;;20.70;10.63;;;3.40;99.90;;;;;;5095613;28;20553;-60
2022/01/08 04:54:38;;;;;;;18.80;9.70;;;3.40;99.90;;;;;;5094881;28;20197;-58
2022/01/08 04:57:04;;;;;;;12.83;9.33;;;3.20;99.90;;;;;;5095482;28;20188;-58
2022/01/08 04:59:29;;;;;;;17.60;12.00;;;3.20;99.90;;;;;;5077412;28;20188;-59
2022/01/08 05:01:58;;;;;;;18.37;11.67;;;3.30;99.90;;;;;;5080609;28;20198;-58
2022/01/08 05:04:27;;;;;;;25.03;12.93;;;3.30;99.90;;;;;;5076134;28;20204;-59
2022/01/08 05:06:52;;;;;;;22.17;12.63;;;3.30;99.90;;;;;;5094495;28;20200;-58
2022/01/08 05:09:18;;;;;;;20.20;11.73;;;3.40;99.90;;;;;;5094906;28;20544;-58
2022/01/08 05:11:44;;;;;;;17.13;12.20;;;3.50;99.90;;;;;;5092404;28;20568;-59
2022/01/08 05:14:10;;;;;;;24.37;11.90;;;3.40;99.90;;;;;;5054850;28;20205;-58
2022/01/08 05:16:36;;;;;;;26.23;12.30;;;3.50;99.90;;;;;;5074991;28;20197;-58
2022/01/08 05:19:05;;;;;;;21.50;12.53;;;3.60;99.90;;;;;;5075045;28;20228;-58
2022/01/08 05:21:33;;;;;;;22.83;12.07;;;3.50;99.90;;;;;;5077441;28;20619;-58
2022/01/08 05:23:58;;;;;;;31.23;13.77;;;3.50;99.90;;;;;;5093641;28;20323;-58
2022/01/08 05:26:26;;;;;;;27.67;14.17;;;3.50;99.90;;;;;;5075334;28;20275;-61
2022/01/08 05:28:52;;;;;;;26.97;12.97;;;3.60;99.90;;;;;;5094236;28;20533;-58
2022/01/08 05:31:22;;;;;;;20.80;12.17;;;3.50;99.90;;;;;;5093399;28;20224;-58
2022/01/08 05:33:48;;;;;;;35.13;16.30;;;3.50;99.90;;;;;;5075501;28;20650;-61
2022/01/08 05:36:14;;;;;;;25.23;14.07;;;3.50;99.90;;;;;;5090450;28;20185;-58
2022/01/08 05:38:40;;;;;;;28.00;13.27;;;3.50;99.90;;;;;;5078750;28;20210;-59
2022/01/08 05:41:06;;;;;;;23.50;13.67;;;3.30;99.90;;;;;;5093282;28;20212;-58
2022/01/08 05:43:32;;;;;;;20.80;14.13;;;3.40;99.90;;;;;;5078914;28;20193;-58
2022/01/08 05:45:58;;;;;;;27.67;12.87;;;3.50;99.90;;;;;;5087471;28;20189;-58
2022/01/08 05:48:24;;;;;;;31.33;14.17;;;3.60;99.90;;;;;;5093284;28;20188;-59
2022/01/08 05:50:50;;;;;;;27.47;13.93;;;3.40;99.90;;;;;;5082097;28;20196;-58
2022/01/08 05:53:18;;;;;;;26.43;14.47;;;3.30;99.90;;;;;;5066903;28;20189;-58
2022/01/08 05:55:44;;;;;;;26.30;14.67;;;3.30;99.90;;;;;;5093709;28;20654;-58
2022/01/08 05:58:09;;;;;;;21.50;12.97;;;3.30;99.90;;;;;;5092231;28;20180;-59
2022/01/08 06:00:35;;;;;;;22.50;11.83;;;3.30;99.90;;;;;;5092978;28;20247;-58
2022/01/08 06:03:01;;;;;;;28.30;14.73;;;3.40;99.90;;;;;;5032723;28;20189;-58
2022/01/08 06:05:27;;;;;;;25.80;13.13;;;3.30;99.90;;;;;;5082557;28;20212;-58
2022/01/08 06:07:53;;;;;;;25.80;13.43;;;3.20;99.90;;;;;;5065768;28;20234;-58
2022/01/08 06:10:19;;;;;;;32.40;15.77;;;3.30;99.90;;;;;;5053928;28;1118280;-58
2022/01/08 06:12:46;;;;;;;27.07;15.07;;;3.50;99.90;;;;;;5094495;28;20188;-58
2022/01/08 06:15:12;;;;;;;26.83;14.57;;;3.60;99.90;;;;;;5093614;28;20216;-58
2022/01/08 06:17:38;;;;;;;27.60;14.23;;;3.40;99.90;;;;;;5093872;28;20196;-58
2022/01/08 06:20:05;;;;;;;28.13;14.10;;;3.40;99.90;;;;;;5063025;28;20220;-58
2022/01/08 06:22:30;;;;;;;27.03;14.63;;;3.30;99.90;;;;;;5074991;28;20235;-58
2022/01/08 06:24:56;;;;;;;26.50;14.23;;;3.20;99.90;;;;;;5083531;28;20193;-58
2022/01/08 06:27:22;;;;;;;28.43;13.40;;;3.30;99.90;;;;;;5090353;28;20193;-58
2022/01/08 06:29:47;;;;;;;27.17;14.63;;;3.20;99.90;;;;;;5056478;28;20292;-59
2022/01/08 06:32:14;;;;;;;24.23;12.53;;;3.10;99.90;;;;;;5085268;28;20184;-58
2022/01/08 06:34:41;;;;;;;23.13;12.93;;;3.10;99.90;;;;;;5083350;28;20193;-58
2022/01/08 06:37:07;;;;;;;25.67;15.60;;;3.30;99.90;;;;;;5086384;28;20261;-58
2022/01/08 06:39:32;;;;;;;29.10;13.90;;;3.40;99.90;;;;;;5093022;28;20646;-59
2022/01/08 06:41:58;;;;;;;26.23;14.00;;;3.50;99.90;;;;;;5067519;28;20646;-61
2022/01/08 06:44:24;;;;;;;32.57;14.97;;;3.40;99.90;;;;;;5043092;28;20189;-58
2022/01/08 06:46:50;;;;;;;25.83;12.97;;;3.40;99.90;;;;;;5075100;28;20193;-58
2022/01/08 06:49:15;;;;;;;25.63;14.00;;;3.40;99.90;;;;;;5076429;28;20176;-58
2022/01/08 06:51:41;;;;;;;29.23;12.27;;;3.40;99.90;;;;;;5059945;28;20185;-58
2022/01/08 06:54:07;;;;;;;31.93;14.37;;;3.50;99.90;;;;;;5093137;28;20176;-58
2022/01/08 06:56:32;;;;;;;24.90;12.87;;;3.70;99.90;;;;;;5062689;28;20274;-58
2022/01/08 06:58:58;;;;;;;29.27;13.77;;;3.70;99.90;;;;;;5074288;28;20646;-57
2022/01/08 07:01:24;;;;;;;29.63;15.27;;;3.70;99.90;;;;;;5073082;28;20236;-58
2022/01/08 07:03:50;;;;;;;33.63;15.40;;;3.70;99.90;;;;;;5093313;28;20277;-57
2022/01/08 07:06:16;;;;;;;30.33;14.77;;;3.60;99.90;;;;;;5092293;28;20181;-58
2022/01/08 07:08:41;;;;;;;41.67;16.87;;;3.50;99.90;;;;;;5092677;28;20593;-58
2022/01/08 07:11:07;;;;;;;29.17;15.03;;;3.60;99.90;;;;;;5075685;28;20649;-58
2022/01/08 07:13:33;;;;;;;25.93;14.47;;;3.60;99.90;;;;;;5093308;28;20541;-57
2022/01/08 07:15:59;;;;;;;35.67;15.00;;;3.50;99.90;;;;;;5078014;28;20193;-58
2022/01/08 07:18:24;;;;;;;23.40;13.13;;;3.40;99.90;;;;;;5073681;28;20272;-58
2022/01/08 07:20:50;;;;;;;33.27;13.70;;;3.40;99.90;;;;;;5073423;28;20220;-59
2022/01/08 07:23:16;;;;;;;26.90;12.40;;;3.40;99.90;;;;;;5093733;28;20694;-57
2022/01/08 07:25:41;;;;;;;21.03;12.13;;;3.30;99.90;;;;;;5074150;28;20192;-60
2022/01/08 07:28:07;;;;;;;25.40;13.27;;;3.30;99.90;;;;;;5092801;28;20200;-58
2022/01/08 07:30:33;;;;;;;30.13;12.03;;;3.30;99.90;;;;;;5074607;28;20189;-58
2022/01/08 07:32:58;;;;;;;30.30;12.33;;;3.40;99.90;;;;;;5080844;28;20550;-59
2022/01/08 07:35:24;;;;;;;20.03;12.30;;;3.50;99.90;;;;;;5059243;28;20649;-58
2022/01/08 07:37:52;;;;;;;33.47;13.17;;;3.60;99.90;;;;;;5042634;28;20193;-58
2022/01/08 07:40:19;;;;;;;25.60;13.30;;;3.60;99.90;;;;;;5086539;28;20248;-59
2022/01/08 07:42:45;;;;;;;25.73;11.17;;;3.60;99.90;;;;;;5080798;28;20201;-59
2022/01/08 07:45:11;;;;;;;16.53;11.13;;;3.60;99.90;;;;;;5091628;28;20188;-58
2022/01/08 07:47:37;;;;;;;19.80;11.13;;;3.60;99.90;;;;;;5073278;28;20178;-58
2022/01/08 07:50:05;;;;;;;18.03;10.43;;;3.60;99.90;;;;;;5070758;28;20263;-58
2022/01/08 07:52:31;;;;;;;21.80;10.40;;;3.70;99.90;;;;;;5082587;28;20185;-58
2022/01/08 07:54:57;;;;;;;15.97;10.27;;;3.70;99.90;;;;;;5082004;28;20626;-58
2022/01/08 07:57:22;;;;;;;21.60;11.03;;;3.80;99.90;;;;;;5076261;28;20189;-58
2022/01/08 07:59:48;;;;;;;24.80;10.27;;;4.00;99.90;;;;;;5077779;28;20291;-58
2022/01/08 08:02:14;;;;;;;19.77;11.93;;;4.00;99.90;;;;;;5086776;28;20185;-60
2022/01/08 08:04:40;;;;;;;22.17;11.67;;;4.00;99.90;;;;;;5060120;28;20184;-58
2022/01/08 08:07:08;;;;;;;14.87;8.87;;;3.90;99.90;;;;;;5067897;28;20188;-58
2022/01/08 08:09:34;;;;;;;22.27;10.00;;;4.10;99.90;;;;;;5077536;28;20185;-57
2022/01/08 08:12:00;;;;;;;13.20;8.03;;;4.10;99.90;;;;;;5082424;28;20245;-58
2022/01/08 08:14:26;;;;;;;20.10;7.87;;;4.10;99.90;;;;;;5074470;28;20268;-59
2022/01/08 08:16:51;;;;;;;16.33;8.63;;;4.10;99.90;;;;;;5074000;28;20272;-58
2022/01/08 08:19:17;;;;;;;17.07;8.30;;;4.00;99.90;;;;;;5074932;28;20192;-58
2022/01/08 08:21:43;;;;;;;10.80;6.50;;;4.10;99.90;;;;;;5064064;28;20228;-57
2022/01/08 08:24:09;;;;;;;15.53;7.50;;;4.10;99.90;;;;;;5088313;28;20184;-62
2022/01/08 08:26:36;;;;;;;11.57;6.93;;;3.90;99.90;;;;;;5082071;28;20185;-62
2022/01/08 08:29:02;;;;;;;14.93;7.17;;;3.90;99.90;;;;;;5084201;28;20188;-62
2022/01/08 08:31:28;;;;;;;13.20;7.00;;;4.00;99.90;;;;;;5057111;28;20212;-62
2022/01/08 08:33:54;;;;;;;11.37;6.73;;;4.00;99.90;;;;;;5057505;28;20630;-62
2022/01/08 08:36:19;;;;;;;12.97;5.77;;;4.10;99.90;;;;;;5091443;28;20193;-62
2022/01/08 08:38:45;;;;;;;12.63;7.63;;;4.20;99.90;;;;;;5081864;28;20288;-61
2022/01/08 08:41:11;;;;;;;11.50;6.40;;;4.20;99.90;;;;;;5073132;28;20213;-61
2022/01/08 08:43:36;;;;;;;11.87;5.60;;;4.30;99.90;;;;;;5055326;28;20553;-61
2022/01/08 08:46:03;;;;;;;11.43;6.63;;;4.30;99.90;;;;;;5077360;28;20276;-60
2022/01/08 08:48:29;;;;;;;12.67;5.80;;;4.20;99.90;;;;;;5073198;28;20196;-60
2022/01/08 08:50:54;;;;;;;7.77;5.37;;;4.20;99.90;;;;;;5082630;28;20265;-60
2022/01/08 08:53:21;;;;;;;8.17;6.33;;;4.30;99.90;;;;;;5073993;28;20189;-62
2022/01/08 08:55:48;;;;;;;16.83;9.43;;;4.40;99.90;;;;;;5065205;28;20188;-60
2022/01/08 08:58:16;;;;;;;14.83;7.60;;;4.60;99.90;;;;;;5084138;28;20184;-62
2022/01/08 09:00:42;;;;;;;10.47;5.97;;;4.70;99.90;;;;;;5053670;28;20224;-61
2022/01/08 09:03:12;;;;;;;8.57;5.53;;;4.70;99.90;;;;;;5072633;28;20238;-61
2022/01/08 09:05:38;;;;;;;15.47;5.07;;;4.90;99.90;;;;;;5076824;28;20257;-60
2022/01/08 09:08:04;;;;;;;11.63;6.00;;;4.90;99.90;;;;;;5068940;28;20574;-61
2022/01/08 09:10:30;;;;;;;15.37;4.70;;;4.90;99.90;;;;;;5074714;28;20200;-61
2022/01/08 09:12:56;;;;;;;12.20;5.67;;;4.90;99.90;;;;;;5058220;28;20181;-61
2022/01/08 09:15:25;;;;;;;13.33;6.57;;;4.90;99.90;;;;;;5075601;28;20201;-60
2022/01/08 09:17:56;;;;;;;7.93;6.27;;;4.70;99.90;;;;;;5057769;28;20242;-62
2022/01/08 09:20:23;;;;;;;18.97;7.67;;;4.70;99.90;;;;;;5081525;28;20217;-63
2022/01/08 09:22:49;;;;;;;10.63;5.67;;;4.70;99.90;;;;;;5064900;28;20189;-62
2022/01/08 09:25:15;;;;;;;13.80;6.97;;;4.60;99.90;;;;;;5079795;28;20202;-62
2022/01/08 09:27:41;;;;;;;9.93;5.37;;;4.70;99.90;;;;;;5072139;28;20185;-62
2022/01/08 09:30:07;;;;;;;10.13;6.17;;;4.70;99.90;;;;;;5089960;28;20197;-61
2022/01/08 09:32:33;;;;;;;13.13;6.70;;;4.80;99.90;;;;;;5093196;28;20185;-61
2022/01/08 09:34:59;;;;;;;10.13;5.57;;;4.70;99.90;;;;;;5062204;28;20185;-60
2022/01/08 09:37:25;;;;;;;10.57;5.87;;;4.80;99.90;;;;;;5071484;28;20187;-59
2022/01/08 09:39:51;;;;;;;7.77;5.73;;;4.70;99.90;;;;;;5068347;28;20220;-61
2022/01/08 09:42:17;;;;;;;14.03;5.43;;;4.80;99.90;;;;;;5094736;28;20215;-61
2022/01/08 09:44:44;;;;;;;8.10;4.83;;;4.90;99.90;;;;;;5064487;28;20242;-62
2022/01/08 09:47:12;;;;;;;11.10;6.57;;;4.90;99.90;;;;;;5087821;28;20248;-62
2022/01/08 09:49:38;;;;;;;11.27;5.70;;;5.00;99.90;;;;;;5076210;28;20638;-62
2022/01/08 09:52:04;;;;;;;9.90;5.60;;;5.00;99.90;;;;;;5089610;28;20205;-62
2022/01/08 09:54:31;;;;;;;6.10;4.80;;;5.10;99.90;;;;;;5086411;28;20195;-60
2022/01/08 09:56:57;;;;;;;16.80;5.40;;;5.10;99.90;;;;;;5077426;28;20226;-62
2022/01/08 09:59:24;;;;;;;8.67;4.50;;;5.10;99.90;;;;;;5076369;28;20202;-63
2022/01/08 10:01:55;;;;;;;4.33;3.97;;;5.00;99.90;;;;;;5061857;28;20599;-62
2022/01/08 10:04:29;;;;;;;9.93;5.33;;;4.90;99.90;;;;;;5086892;28;20538;-63
2022/01/08 10:07:15;;;;;;;6.47;4.70;;;5.00;99.90;;;;;;5061695;28;20176;-61
2022/01/08 10:09:57;;;;;;;3.87;3.57;;;4.90;99.90;;;;;;5092959;28;20177;-62
2022/01/08 10:12:49;;;;;;;6.23;5.10;;;4.90;99.90;;;;;;5094110;28;20234;-62
2022/01/08 10:18:31;;;;;;;6.20;4.30;;;5.10;99.90;;;;;;5074878;28;20192;-62
2022/01/08 10:20:58;;;;;;;7.80;4.10;;;5.10;99.90;;;;;;5077078;28;20291;-62
2022/01/08 10:23:26;;;;;;;6.03;3.10;;;5.00;99.90;;;;;;5092773;28;20629;-62
2022/01/08 10:26:06;;;;;;;5.20;3.30;;;5.10;99.90;;;;;;5093671;28;20268;-62
2022/01/08 10:29:02;;;;;;;5.03;3.70;;;5.10;99.90;;;;;;5090521;28;20172;-62
2022/01/08 10:31:32;;;;;;;4.63;4.23;;;5.10;99.90;;;;;;5065125;28;20207;-63
2022/01/08 10:34:00;;;;;;;5.73;3.53;;;5.10;99.90;;;;;;5074648;28;20244;-62
2022/01/08 10:36:38;;;;;;;5.43;3.80;;;5.10;99.90;;;;;;5085273;28;20586;-62
2022/01/08 10:39:07;;;;;;;5.33;3.27;;;5.10;99.90;;;;;;5079132;28;20665;-62
2022/01/08 10:41:42;;;;;;;5.47;3.70;;;5.10;99.90;;;;;;5089956;28;20209;-62
2022/01/08 10:44:27;;;;;;;4.13;3.63;;;5.20;99.90;;;;;;5057532;28;20257;-62
2022/01/08 10:47:22;;;;;;;4.10;3.27;;;5.30;99.90;;;;;;5075852;28;20177;-65
2022/01/08 10:49:47;;;;;;;6.70;3.30;;;5.40;99.90;;;;;;5059468;28;20882;-62
2022/01/08 10:52:16;;;;;;;4.67;4.27;;;5.40;99.90;;;;;;5081344;28;20259;-66
2022/01/08 10:54:44;;;;;;;5.07;3.10;;;5.30;99.90;;;;;;5086270;28;20185;-62
2022/01/08 10:57:12;;;;;;;4.90;3.83;;;5.40;99.90;;;;;;5070819;28;20200;-62
2022/01/08 10:59:38;;;;;;;6.87;4.20;;;5.50;99.90;;;;;;5075264;28;20691;-62
2022/01/08 11:02:06;;;;;;;5.20;3.50;;;5.50;99.90;;;;;;5075438;28;20246;-63
2022/01/08 11:04:53;;;;;;;3.17;2.70;;;5.40;99.90;;;;;;5082025;28;20658;-62
2022/01/08 11:07:22;;;;;;;5.37;4.93;;;5.40;99.90;;;;;;5067936;28;20302;-62
2022/01/08 11:09:50;;;;;;;5.00;3.63;;;5.50;99.90;;;;;;5092403;28;20249;-66
2022/01/08 11:12:22;;;;;;;6.63;3.47;;;5.50;99.90;;;;;;5092033;28;20196;-62
2022/01/08 11:17:22;;;;;;;7.57;4.27;;;5.30;99.90;;;;;;5073444;28;20189;-61
2022/01/08 11:20:10;;;;;;;8.43;4.17;;;5.30;99.90;;;;;;5082939;28;20208;-62
2022/01/08 11:22:41;;;;;;;5.17;3.73;;;5.30;99.90;;;;;;5073517;28;20230;-62
2022/01/08 11:25:07;;;;;;;5.27;3.33;;;5.30;99.90;;;;;;5086786;28;20625;-63
2022/01/08 11:27:35;;;;;;;5.37;3.50;;;5.30;99.90;;;;;;5071301;28;20189;-62
2022/01/08 11:30:06;;;;;;;9.23;3.87;;;5.20;99.90;;;;;;5083894;28;20185;-62
2022/01/08 11:32:34;;;;;;;7.17;3.67;;;5.10;99.90;;;;;;5084171;28;20649;-62
2022/01/08 11:35:01;;;;;;;8.43;3.83;;;5.20;99.90;;;;;;5068383;28;20226;-61
2022/01/08 11:37:29;;;;;;;7.17;4.00;;;5.20;99.90;;;;;;5085327;28;20224;-58
2022/01/08 11:39:59;;;;;;;7.03;4.60;;;5.20;99.90;;;;;;5082752;28;20558;-62
2022/01/08 11:42:26;;;;;;;5.50;4.23;;;5.20;99.90;;;;;;5077583;28;20630;-61
2022/01/08 11:44:54;;;;;;;8.77;5.00;;;5.20;99.90;;;;;;5087952;28;20182;-60
2022/01/08 11:47:21;;;;;;;11.00;5.40;;;5.20;99.90;;;;;;5055534;28;20630;-58
2022/01/08 11:49:48;;;;;;;9.33;5.27;;;5.30;99.90;;;;;;5065046;28;20216;-58
2022/01/08 11:52:14;;;;;;;7.03;3.97;;;5.20;99.90;;;;;;5052366;28;20196;-61
2022/01/08 11:54:41;;;;;;;6.80;4.07;;;5.10;99.90;;;;;;5083900;28;20176;-61
2022/01/08 11:57:17;;;;;;;6.40;4.27;;;5.00;99.90;;;;;;5055883;28;20551;-60
2022/01/08 11:59:43;;;;;;;11.63;4.77;;;5.00;99.90;;;;;;5091747;28;20188;-66
2022/01/08 12:02:11;;;;;;;4.93;3.40;;;5.00;99.90;;;;;;5052400;28;20270;-61
2022/01/08 12:04:40;;;;;;;6.83;4.50;;;5.00;99.90;;;;;;5072792;28;20315;-60
2022/01/08 12:07:25;;;;;;;4.47;3.40;;;4.90;99.90;;;;;;5073281;28;20187;-61
2022/01/08 12:10:19;;;;;;;5.70;3.70;;;4.90;99.90;;;;;;5064938;28;20197;-61
2022/01/08 12:12:52;;;;;;;5.87;4.13;;;5.00;99.90;;;;;;5072888;28;20166;-64
2022/01/08 12:15:41;;;;;;;5.30;4.07;;;5.00;99.90;;;;;;5073094;28;20181;-60
2022/01/08 12:18:20;;;;;;;6.77;4.23;;;5.00;99.90;;;;;;5073158;28;20181;-61
2022/01/08 12:20:47;;;;;;;10.80;4.30;;;5.00;99.90;;;;;;5071872;28;20204;-74
2022/01/08 12:23:33;;;;;;;6.73;4.83;;;5.00;99.90;;;;;;5079421;28;20181;-68
2022/01/08 12:26:26;;;;;;;7.13;3.93;;;4.90;99.90;;;;;;5076412;28;20208;-68
2022/01/08 12:28:54;;;;;;;10.17;5.73;;;5.00;99.90;;;;;;5087100;28;20184;-68
2022/01/08 12:31:36;;;;;;;6.03;4.17;;;5.10;99.90;;;;;;5089230;28;20185;-68
2022/01/08 12:34:45;;;;;;;4.73;4.00;;;5.20;99.90;;;;;;5080037;28;20262;-66
2022/01/08 12:37:12;;;;;;;7.07;5.00;;;5.20;99.90;;;;;;5091766;28;20184;-67
2022/01/08 12:39:44;;;;;;;6.87;4.37;;;5.20;99.90;;;;;;5059245;28;20189;-67
2022/01/08 12:42:27;;;;;;;6.10;4.50;;;5.30;99.90;;;;;;5090259;28;20248;-66
2022/01/08 12:45:07;;;;;;;5.53;3.90;;;5.30;99.90;;;;;;5095763;28;20185;-72
2022/01/08 12:47:53;;;;;;;6.80;4.53;;;5.30;99.90;;;;;;5092072;28;20567;-73
2022/01/08 12:50:39;;;;;;;5.53;3.73;;;5.30;99.90;;;;;;5095643;28;20259;-76
2022/01/08 12:53:05;;;;;;;4.70;3.63;;;5.30;99.90;;;;;;5095543;28;20685;-69
2022/01/08 12:55:50;;;;;;;7.40;4.23;;;5.30;99.90;;;;;;5093661;28;20321;-64
2022/01/08 12:58:23;;;;;;;5.00;3.67;;;5.40;99.90;;;;;;5078475;28;20664;-61
2022/01/08 13:01:08;;;;;;;7.10;4.63;;;5.40;99.90;;;;;;5083007;28;20650;-61
2022/01/08 13:03:39;;;;;;;5.63;3.73;;;5.50;99.90;;;;;;5089871;28;20189;-60
2022/01/08 13:06:14;;;;;;;9.10;4.30;;;5.50;99.90;;;;;;5086484;28;20181;-61
2022/01/08 13:08:45;;;;;;;5.13;3.83;;;5.50;99.90;;;;;;5086144;28;20188;-61
2022/01/08 13:11:14;;;;;;;4.93;3.60;;;5.50;99.90;;;;;;5085472;28;20216;-62
2022/01/08 13:13:56;;;;;;;9.33;4.63;;;5.50;99.90;;;;;;5075550;28;20672;-62
2022/01/08 13:16:30;;;;;;;10.60;4.77;;;5.40;99.90;;;;;;5077720;28;20189;-61
2022/01/08 13:19:03;;;;;;;7.33;5.17;;;5.50;99.90;;;;;;5088477;28;20176;-60
2022/01/08 13:21:34;;;;;;;6.00;4.17;;;5.50;99.90;;;;;;5090331;28;20687;-60